createdAt,value
2023-03-07T00:00:02.094Z,37.90
2023-03-07T00:01:02.075Z,34.50
2023-03-07T00:02:02.061Z,39.10
2023-03-07T00:03:02.112Z,38.20
2023-03-07T00:04:02.112Z,35.70
2023-03-07T00:05:02.016Z,36.20
2023-03-07T00:06:02.001Z,37.90
2023-03-07T00:07:01.984Z,36.00
2023-03-07T00:08:01.976Z,38.70
2023-03-07T00:09:01.955Z,40.10
2023-03-07T00:10:01.963Z,40.30
2023-03-07T00:11:01.937Z,40.30
2023-03-07T00:12:01.931Z,40.80
2023-03-07T00:13:01.899Z,39.50
2023-03-07T00:14:01.887Z,37.70
2023-03-07T00:15:01.876Z,41.80
2023-03-07T00:16:01.991Z,39.50
2023-03-07T00:17:01.837Z,38.80
2023-03-07T00:18:01.824Z,37.20
2023-03-07T00:19:01.807Z,38.10
2023-03-07T00:20:01.797Z,39.50
2023-03-07T00:21:01.794Z,39.00
2023-03-07T00:22:01.766Z,38.60
2023-03-07T00:23:01.749Z,38.10
2023-03-07T00:24:01.731Z,36.50
2023-03-07T00:25:01.720Z,35.50
2023-03-07T00:26:01.747Z,37.10
2023-03-07T00:27:01.688Z,35.80
2023-03-07T00:28:01.676Z,38.50
2023-03-07T00:29:01.660Z,37.10
2023-03-07T00:30:01.642Z,40.60
2023-03-07T00:31:01.694Z,40.80
2023-03-07T00:32:01.650Z,40.20
2023-03-07T00:33:01.599Z,37.70
2023-03-07T00:34:01.586Z,36.50
2023-03-07T00:35:01.574Z,38.40
2023-03-07T00:36:01.606Z,38.30
2023-03-07T00:37:01.537Z,39.70
2023-03-07T00:38:01.524Z,41.70
2023-03-07T00:39:01.507Z,40.20
2023-03-07T00:40:01.512Z,40.50
2023-03-07T00:41:01.491Z,39.30
2023-03-07T00:42:01.468Z,41.70
2023-03-07T00:43:01.455Z,41.50
2023-03-07T00:44:01.438Z,42.20
2023-03-07T00:45:01.439Z,39.90
2023-03-07T00:46:01.493Z,42.50
2023-03-07T00:47:01.393Z,44.70
2023-03-07T00:48:01.378Z,46.80
2023-03-07T00:49:01.368Z,45.10
2023-03-07T00:50:01.354Z,43.60
2023-03-07T00:51:01.401Z,47.00
2023-03-07T00:52:01.412Z,48.40
2023-03-07T00:53:01.321Z,48.60
2023-03-07T00:54:01.297Z,48.50
2023-03-07T00:55:01.302Z,48.50
2023-03-07T00:56:01.277Z,49.90
2023-03-07T00:57:01.247Z,50.50
2023-03-07T00:58:01.233Z,48.90
2023-03-07T00:59:01.221Z,51.20
2023-03-07T01:00:01.220Z,48.50
2023-03-07T01:01:01.256Z,51.90
2023-03-07T01:02:01.176Z,50.40
2023-03-07T01:03:01.161Z,51.60
2023-03-07T01:04:01.173Z,51.10
2023-03-07T01:05:01.132Z,49.30
2023-03-07T01:06:01.122Z,52.80
2023-03-07T01:07:01.115Z,52.70
2023-03-07T01:08:01.098Z,55.60
2023-03-07T01:09:01.113Z,55.70
2023-03-07T01:10:01.069Z,55.10
2023-03-07T01:11:01.047Z,56.00
2023-03-07T01:12:01.031Z,55.50
2023-03-07T01:13:01.020Z,56.90
2023-03-07T01:14:01.030Z,50.70
2023-03-07T01:15:00.985Z,53.80
2023-03-07T01:16:00.972Z,54.60
2023-03-07T01:17:00.959Z,54.00
2023-03-07T01:18:00.948Z,55.60
2023-03-07T01:19:00.933Z,55.00
2023-03-07T01:20:00.912Z,55.70
2023-03-07T01:21:00.911Z,58.50
2023-03-07T01:22:00.881Z,55.20
2023-03-07T01:23:00.870Z,56.80
2023-03-07T01:24:00.862Z,55.90
2023-03-07T01:25:00.849Z,55.20
2023-03-07T01:26:00.829Z,56.50
2023-03-07T01:27:00.813Z,56.10
2023-03-07T01:28:00.795Z,60.20
2023-03-07T01:29:00.784Z,58.90
2023-03-07T01:30:00.767Z,58.40
2023-03-07T01:31:00.755Z,56.70
2023-03-07T01:32:00.795Z,57.50
2023-03-07T01:33:00.728Z,60.10
2023-03-07T01:34:00.710Z,56.30
2023-03-07T01:35:00.704Z,58.60
2023-03-07T01:36:00.775Z,58.70
2023-03-07T01:37:00.667Z,55.30
2023-03-07T01:38:00.651Z,58.60
2023-03-07T01:39:00.637Z,60.20
2023-03-07T01:40:00.624Z,61.50
2023-03-07T01:41:00.603Z,60.60
2023-03-07T01:42:00.594Z,59.60
2023-03-07T01:43:00.580Z,57.00
2023-03-07T01:44:00.569Z,57.10
2023-03-07T01:45:00.577Z,54.30
2023-03-07T01:46:00.572Z,56.20
2023-03-07T01:47:00.792Z,57.60
2023-03-07T01:48:00.506Z,59.10
2023-03-07T01:49:00.549Z,56.60
2023-03-07T01:50:00.563Z,59.70
2023-03-07T01:51:00.461Z,58.20
2023-03-07T01:52:00.446Z,58.50
2023-03-07T01:53:00.492Z,63.10
2023-03-07T01:54:00.416Z,66.00
2023-03-07T01:55:00.410Z,62.30
2023-03-07T01:56:00.388Z,65.40
2023-03-07T01:57:00.386Z,63.80
2023-03-07T01:58:00.357Z,63.30
2023-03-07T01:59:00.341Z,66.40
2023-03-07T02:00:00.340Z,64.00
2023-03-07T02:01:00.333Z,68.00
2023-03-07T02:02:00.302Z,69.40
2023-03-07T02:03:00.287Z,66.40
2023-03-07T02:04:00.276Z,65.90
2023-03-07T02:05:00.260Z,64.60
2023-03-07T02:06:00.240Z,67.70
2023-03-07T02:07:00.231Z,69.20
2023-03-07T02:08:00.215Z,71.40
2023-03-07T02:09:00.198Z,69.90
2023-03-07T02:10:00.183Z,67.90
2023-03-07T02:11:00.172Z,69.20
2023-03-07T02:12:00.152Z,68.40
2023-03-07T02:13:00.141Z,69.30
2023-03-07T02:14:00.124Z,70.20
2023-03-07T02:15:00.151Z,74.30
2023-03-07T02:16:00.130Z,74.40
2023-03-07T02:17:00.107Z,77.20
2023-03-07T02:18:00.104Z,78.10
2023-03-07T02:19:00.058Z,77.20
2023-03-07T02:20:00.047Z,76.10
2023-03-07T02:21:00.028Z,78.30
2023-03-07T02:22:00.000Z,72.50
2023-03-07T02:22:59.997Z,74.90
2023-03-07T02:23:59.978Z,74.00
2023-03-07T02:24:59.966Z,76.00
2023-03-07T02:25:59.948Z,75.60
2023-03-07T02:26:59.936Z,76.60
2023-03-07T02:27:59.922Z,78.10
2023-03-07T02:28:59.915Z,75.70
2023-03-07T02:29:59.892Z,81.10
2023-03-07T02:30:59.920Z,77.60
2023-03-07T02:31:59.872Z,79.00
2023-03-07T02:32:59.849Z,78.50
2023-03-07T02:33:59.862Z,77.90
2023-03-07T02:34:59.822Z,82.00
2023-03-07T02:35:59.850Z,81.40
2023-03-07T02:36:59.789Z,77.90
2023-03-07T02:37:59.776Z,81.10
2023-03-07T02:38:59.761Z,80.70
2023-03-07T02:39:59.746Z,81.10
2023-03-07T02:40:59.732Z,83.40
2023-03-07T02:41:59.719Z,84.40
2023-03-07T02:42:59.704Z,84.80
2023-03-07T02:43:59.690Z,83.20
2023-03-07T02:44:59.674Z,83.30
2023-03-07T02:45:59.684Z,83.50
2023-03-07T02:46:59.640Z,86.20
2023-03-07T02:47:59.631Z,81.60
2023-03-07T02:48:59.616Z,86.40
2023-03-07T02:49:59.610Z,88.60
2023-03-07T02:50:59.587Z,86.90
2023-03-07T02:51:59.571Z,86.40
2023-03-07T02:52:59.569Z,87.50
2023-03-07T02:53:59.544Z,87.50
2023-03-07T02:54:59.531Z,86.10
2023-03-07T02:55:59.529Z,87.90
2023-03-07T02:56:59.499Z,87.30
2023-03-07T02:57:59.496Z,82.30
2023-03-07T02:58:59.470Z,85.00
2023-03-07T02:59:59.457Z,85.60
2023-03-07T03:00:59.445Z,82.30
2023-03-07T03:01:59.455Z,82.70
2023-03-07T03:02:59.415Z,85.80
2023-03-07T03:03:59.405Z,85.20
2023-03-07T03:04:59.447Z,86.50
2023-03-07T03:05:59.369Z,84.60
2023-03-07T03:06:59.368Z,84.20
2023-03-07T03:07:59.348Z,85.00
2023-03-07T03:08:59.335Z,86.80
2023-03-07T03:09:59.341Z,88.60
2023-03-07T03:10:59.301Z,83.70
2023-03-07T03:11:59.288Z,82.40
2023-03-07T03:12:59.275Z,85.70
2023-03-07T03:13:59.261Z,83.00
2023-03-07T03:14:59.245Z,85.80
2023-03-07T03:15:59.277Z,84.90
2023-03-07T03:16:59.218Z,81.00
2023-03-07T03:17:59.203Z,82.30
2023-03-07T03:18:59.192Z,81.90
2023-03-07T03:19:59.176Z,84.10
2023-03-07T03:20:59.162Z,83.30
2023-03-07T03:21:59.148Z,85.00
2023-03-07T03:22:59.130Z,80.90
2023-03-07T03:23:59.122Z,84.20
2023-03-07T03:24:59.098Z,81.20
2023-03-07T03:25:59.100Z,80.40
2023-03-07T03:26:59.071Z,79.90
2023-03-07T03:27:59.060Z,80.50
2023-03-07T03:28:59.042Z,83.00
2023-03-07T03:29:59.037Z,82.10
2023-03-07T03:30:59.032Z,78.20
2023-03-07T03:31:59.003Z,77.00
2023-03-07T03:32:58.991Z,79.20
2023-03-07T03:33:58.974Z,76.20
2023-03-07T03:34:58.971Z,75.90
2023-03-07T03:35:58.995Z,76.30
2023-03-07T03:36:58.930Z,72.90
2023-03-07T03:37:58.916Z,76.70
2023-03-07T03:38:58.901Z,73.80
2023-03-07T03:39:58.886Z,73.20
2023-03-07T03:40:58.872Z,76.20
2023-03-07T03:41:58.865Z,73.50
2023-03-07T03:42:58.842Z,73.90
2023-03-07T03:43:58.828Z,71.20
2023-03-07T03:44:58.814Z,69.30
2023-03-07T03:45:58.801Z,73.90
2023-03-07T03:46:58.913Z,74.90
2023-03-07T03:47:58.771Z,69.30
2023-03-07T03:48:58.757Z,66.90
2023-03-07T03:49:58.740Z,68.30
2023-03-07T03:50:58.726Z,67.00
2023-03-07T03:51:58.721Z,66.30
2023-03-07T03:52:58.699Z,64.30
2023-03-07T03:53:58.724Z,63.70
2023-03-07T03:54:58.671Z,60.80
2023-03-07T03:55:58.657Z,61.40
2023-03-07T03:56:58.677Z,62.30
2023-03-07T03:57:58.627Z,59.80
2023-03-07T03:58:58.610Z,60.10
2023-03-07T03:59:58.605Z,60.00
2023-03-07T04:00:58.586Z,58.50
2023-03-07T04:01:58.697Z,59.60
2023-03-07T04:02:58.707Z,57.00
2023-03-07T04:03:58.570Z,57.00
2023-03-07T04:04:58.526Z,59.90
2023-03-07T04:05:58.513Z,59.10
2023-03-07T04:06:58.500Z,61.40
2023-03-07T04:07:58.484Z,60.00
2023-03-07T04:08:58.471Z,55.70
2023-03-07T04:09:58.457Z,55.80
2023-03-07T04:10:58.441Z,53.80
2023-03-07T04:11:58.430Z,54.50
2023-03-07T04:12:58.411Z,55.20
2023-03-07T04:13:58.409Z,57.00
2023-03-07T04:14:58.695Z,53.90
2023-03-07T04:15:58.606Z,51.30
2023-03-07T04:16:58.552Z,50.90
2023-03-07T04:17:58.600Z,50.10
2023-03-07T04:18:58.334Z,52.50
2023-03-07T04:19:58.309Z,47.90
2023-03-07T04:20:58.298Z,47.50
2023-03-07T04:21:58.287Z,50.70
2023-03-07T04:22:58.265Z,51.20
2023-03-07T04:23:58.272Z,58.20
2023-03-07T04:24:58.241Z,51.10
2023-03-07T04:25:58.551Z,52.50
2023-03-07T04:26:58.211Z,53.30
2023-03-07T04:27:58.198Z,52.00
2023-03-07T04:28:58.193Z,57.50
2023-03-07T04:29:58.177Z,59.10
2023-03-07T04:30:58.155Z,63.90
2023-03-07T04:31:58.145Z,64.70
2023-03-07T04:32:58.126Z,66.60
2023-03-07T04:33:58.117Z,68.90
2023-03-07T04:34:58.096Z,61.30
2023-03-07T04:35:58.135Z,64.40
2023-03-07T04:36:58.069Z,60.90
2023-03-07T04:37:58.053Z,62.10
2023-03-07T04:38:58.055Z,59.80
2023-03-07T04:39:58.027Z,61.60
2023-03-07T04:40:58.385Z,59.40
2023-03-07T04:41:58.014Z,62.60
2023-03-07T04:42:57.985Z,57.20
2023-03-07T04:43:57.970Z,64.80
2023-03-07T04:44:57.964Z,61.00
2023-03-07T04:45:58.032Z,59.90
2023-03-07T04:46:57.927Z,66.30
2023-03-07T04:47:57.915Z,68.90
2023-03-07T04:48:57.902Z,74.90
2023-03-07T04:49:57.888Z,71.60
2023-03-07T04:50:57.880Z,74.10
2023-03-07T04:51:57.856Z,71.80
2023-03-07T04:52:57.842Z,73.30
2023-03-07T04:53:57.826Z,70.80
2023-03-07T04:54:57.817Z,76.40
2023-03-07T04:55:57.804Z,75.50
2023-03-07T04:56:57.787Z,83.30
2023-03-07T04:57:57.769Z,72.70
2023-03-07T04:58:57.760Z,77.60
2023-03-07T04:59:57.742Z,72.10
2023-03-07T05:00:57.763Z,76.50
2023-03-07T05:01:57.735Z,82.30
2023-03-07T05:02:57.707Z,78.70
2023-03-07T05:03:57.701Z,80.70
2023-03-07T05:04:57.679Z,86.30
2023-03-07T05:05:57.656Z,90.20
2023-03-07T05:06:57.646Z,93.40
2023-03-07T05:07:57.632Z,83.70
2023-03-07T05:08:57.618Z,86.90
2023-03-07T05:09:57.603Z,94.20
2023-03-07T05:10:57.587Z,107.50
2023-03-07T05:11:57.574Z,99.40
2023-03-07T05:12:57.561Z,106.90
2023-03-07T05:13:57.545Z,100.30
2023-03-07T05:14:57.533Z,97.30
2023-03-07T05:15:57.579Z,96.90
2023-03-07T05:16:57.509Z,97.50
2023-03-07T05:17:57.487Z,91.80
2023-03-07T05:18:57.469Z,100.70
2023-03-07T05:19:57.465Z,97.70
2023-03-07T05:20:57.467Z,104.90
2023-03-07T05:21:57.433Z,95.90
2023-03-07T05:22:57.428Z,102.60
2023-03-07T05:23:57.402Z,110.90
2023-03-07T05:24:57.389Z,105.90
2023-03-07T05:25:57.373Z,105.50
2023-03-07T05:26:57.358Z,98.00
2023-03-07T05:27:57.346Z,103.60
2023-03-07T05:28:57.335Z,111.70
2023-03-07T05:29:57.327Z,104.50
2023-03-07T05:30:57.321Z,107.80
2023-03-07T05:31:57.287Z,98.80
2023-03-07T05:32:57.277Z,94.80
2023-03-07T05:33:57.291Z,100.20
2023-03-07T05:34:57.247Z,90.10
2023-03-07T05:35:57.277Z,96.70
2023-03-07T05:36:57.217Z,94.80
2023-03-07T05:37:57.200Z,104.10
2023-03-07T05:38:57.196Z,99.60
2023-03-07T05:39:57.177Z,104.50
2023-03-07T05:40:57.243Z,98.10
2023-03-07T05:41:57.142Z,118.30
2023-03-07T05:42:57.132Z,108.80
2023-03-07T05:43:57.116Z,102.60
2023-03-07T05:44:57.108Z,110.30
2023-03-07T05:45:57.131Z,103.70
2023-03-07T05:46:57.083Z,114.20
2023-03-07T05:47:57.062Z,119.80
2023-03-07T05:48:57.053Z,116.90
2023-03-07T05:49:57.034Z,126.80
2023-03-07T05:50:57.030Z,120.20
2023-03-07T05:51:57.009Z,130.20
2023-03-07T05:52:56.989Z,136.50
2023-03-07T05:53:56.973Z,122.80
2023-03-07T05:54:56.962Z,113.50
2023-03-07T05:55:56.964Z,115.20
2023-03-07T05:56:56.932Z,127.80
2023-03-07T05:57:56.918Z,115.60
2023-03-07T05:58:56.903Z,105.80
2023-03-07T05:59:56.892Z,114.40
2023-03-07T06:00:56.879Z,127.70
2023-03-07T06:01:56.858Z,115.40
2023-03-07T06:02:56.870Z,114.00
2023-03-07T06:03:56.860Z,116.90
2023-03-07T06:04:56.819Z,118.90
2023-03-07T06:05:56.807Z,118.40
2023-03-07T06:06:56.786Z,108.60
2023-03-07T06:07:56.776Z,107.60
2023-03-07T06:08:56.760Z,123.70
2023-03-07T06:09:56.747Z,113.90
2023-03-07T06:10:56.732Z,104.30
2023-03-07T06:11:56.717Z,106.90
2023-03-07T06:12:56.711Z,117.80
2023-03-07T06:13:56.691Z,91.50
2023-03-07T06:14:56.701Z,99.00
2023-03-07T06:15:56.682Z,99.90
2023-03-07T06:16:56.646Z,100.00
2023-03-07T06:17:56.929Z,102.20
2023-03-07T06:18:56.620Z,90.30
2023-03-07T06:19:56.606Z,96.50
2023-03-07T06:20:56.597Z,114.20
2023-03-07T06:21:56.576Z,104.50
2023-03-07T06:22:56.565Z,97.60
2023-03-07T06:23:56.554Z,101.20
2023-03-07T06:24:56.532Z,106.60
2023-03-07T06:25:56.521Z,95.80
2023-03-07T06:26:56.510Z,101.30
2023-03-07T06:27:56.491Z,102.60
2023-03-07T06:28:56.479Z,91.60
2023-03-07T06:29:56.482Z,100.20
2023-03-07T06:30:56.453Z,102.80
2023-03-07T06:31:56.442Z,104.50
2023-03-07T06:32:56.437Z,87.00
2023-03-07T06:33:57.658Z,87.40
2023-03-07T06:34:56.395Z,83.60
2023-03-07T06:35:56.388Z,84.00
2023-03-07T06:36:56.365Z,84.00
2023-03-07T06:37:56.354Z,81.60
2023-03-07T06:38:56.336Z,83.80
2023-03-07T06:39:56.339Z,82.70
2023-03-07T06:40:56.324Z,75.80
2023-03-07T06:41:56.305Z,78.90
2023-03-07T06:42:56.281Z,74.00
2023-03-07T06:43:56.268Z,67.50
2023-03-07T06:44:56.267Z,69.30
2023-03-07T06:45:56.267Z,71.50
2023-03-07T06:46:56.232Z,71.50
2023-03-07T06:47:56.216Z,73.80
2023-03-07T06:48:56.198Z,71.50
2023-03-07T06:49:56.189Z,72.30
2023-03-07T06:50:56.184Z,78.20
2023-03-07T06:51:56.165Z,79.60
2023-03-07T06:52:56.143Z,74.60
2023-03-07T06:53:56.129Z,78.00
2023-03-07T06:54:56.112Z,73.50
2023-03-07T06:55:56.103Z,68.40
2023-03-07T06:56:56.090Z,63.00
2023-03-07T06:57:56.074Z,60.90
2023-03-07T06:58:56.062Z,67.50
2023-03-07T06:59:56.047Z,66.60
2023-03-07T07:00:56.039Z,71.10
2023-03-07T07:01:56.193Z,66.40
2023-03-07T07:02:56.132Z,63.70
2023-03-07T07:03:55.990Z,65.80
2023-03-07T07:04:55.976Z,62.70
2023-03-07T07:05:55.965Z,68.40
2023-03-07T07:06:55.946Z,65.60
2023-03-07T07:07:55.937Z,71.50
2023-03-07T07:08:55.944Z,67.30
2023-03-07T07:09:55.988Z,81.40
2023-03-07T07:10:55.892Z,67.70
2023-03-07T07:11:55.881Z,68.10
2023-03-07T07:12:55.867Z,77.50
2023-03-07T07:13:55.857Z,77.50
2023-03-07T07:14:55.839Z,62.60
2023-03-07T07:15:55.829Z,85.20
2023-03-07T07:16:55.809Z,67.00
2023-03-07T07:17:55.799Z,61.50
2023-03-07T07:18:55.782Z,63.50
2023-03-07T07:19:55.780Z,53.60
2023-03-07T07:20:55.811Z,58.00
2023-03-07T07:21:55.742Z,64.80
2023-03-07T07:22:55.732Z,61.40
2023-03-07T07:23:55.715Z,60.90
2023-03-07T07:24:55.700Z,56.40
2023-03-07T07:25:55.700Z,64.70
2023-03-07T07:26:55.677Z,66.80
2023-03-07T07:27:55.664Z,59.50
2023-03-07T07:28:55.649Z,58.70
2023-03-07T07:29:55.638Z,64.20
2023-03-07T07:30:55.620Z,56.10
2023-03-07T07:31:55.757Z,52.00
2023-03-07T07:32:55.740Z,54.60
2023-03-07T07:33:55.580Z,60.60
2023-03-07T07:34:55.565Z,58.70
2023-03-07T07:35:55.623Z,54.90
2023-03-07T07:36:55.540Z,59.60
2023-03-07T07:37:55.527Z,61.70
2023-03-07T07:38:55.516Z,51.80
2023-03-07T07:39:55.502Z,67.40
2023-03-07T07:40:55.489Z,62.80
2023-03-07T07:41:55.479Z,47.50
2023-03-07T07:42:55.467Z,53.00
2023-03-07T07:43:55.451Z,50.90
2023-03-07T07:44:55.439Z,48.50
2023-03-07T07:45:55.469Z,48.40
2023-03-07T07:46:55.418Z,50.30
2023-03-07T07:47:55.398Z,52.50
2023-03-07T07:48:55.382Z,44.30
2023-03-07T07:49:55.377Z,48.80
2023-03-07T07:50:55.354Z,44.80
2023-03-07T07:51:55.346Z,49.70
2023-03-07T07:52:55.328Z,56.00
2023-03-07T07:53:55.317Z,47.90
2023-03-07T07:54:55.305Z,48.50
2023-03-07T07:55:55.297Z,38.80
2023-03-07T07:56:55.285Z,42.80
2023-03-07T07:57:55.292Z,45.20
2023-03-07T07:58:55.253Z,41.20
2023-03-07T07:59:55.242Z,43.40
2023-03-07T08:00:55.229Z,42.70
2023-03-07T08:01:55.213Z,45.80
2023-03-07T08:02:55.201Z,44.80
2023-03-07T08:03:55.283Z,41.80
2023-03-07T08:04:55.175Z,43.00
2023-03-07T08:05:55.163Z,38.60
2023-03-07T08:06:55.153Z,44.30
2023-03-07T08:07:55.137Z,46.40
2023-03-07T08:08:55.147Z,46.60
2023-03-07T08:09:55.112Z,42.60
2023-03-07T08:10:55.102Z,42.90
2023-03-07T08:11:55.088Z,42.70
2023-03-07T08:12:55.076Z,40.00
2023-03-07T08:13:55.057Z,32.80
2023-03-07T08:14:55.057Z,33.90
2023-03-07T08:15:55.125Z,37.50
2023-03-07T08:16:55.026Z,35.40
2023-03-07T08:17:55.010Z,40.00
2023-03-07T08:18:54.995Z,39.00
2023-03-07T08:19:54.987Z,36.90
2023-03-07T08:20:54.970Z,37.20
2023-03-07T08:21:54.959Z,38.90
2023-03-07T08:22:54.948Z,36.30
2023-03-07T08:23:54.947Z,36.10
2023-03-07T08:24:54.919Z,35.40
2023-03-07T08:25:54.908Z,32.40
2023-03-07T08:26:54.891Z,32.20
2023-03-07T08:27:54.914Z,35.10
2023-03-07T08:28:54.880Z,38.80
2023-03-07T08:29:54.856Z,37.20
2023-03-07T08:30:54.865Z,37.00
2023-03-07T08:31:54.825Z,37.50
2023-03-07T08:32:54.818Z,34.30
2023-03-07T08:33:54.804Z,39.40
2023-03-07T08:34:54.792Z,37.40
2023-03-07T08:35:54.788Z,37.60
2023-03-07T08:36:54.767Z,40.60
2023-03-07T08:37:54.752Z,38.70
2023-03-07T08:38:54.738Z,37.20
2023-03-07T08:39:54.740Z,38.60
2023-03-07T08:40:54.710Z,41.90
2023-03-07T08:41:54.704Z,46.50
2023-03-07T08:42:54.688Z,43.30
2023-03-07T08:43:54.676Z,44.60
2023-03-07T08:44:54.675Z,43.00
2023-03-07T08:45:54.692Z,37.60
2023-03-07T08:46:54.659Z,40.40
2023-03-07T08:47:54.633Z,38.30
2023-03-07T08:48:54.607Z,36.50
2023-03-07T08:49:54.598Z,37.40
2023-03-07T08:50:55.266Z,36.80
2023-03-07T08:51:54.568Z,37.90
2023-03-07T08:52:54.556Z,41.40
2023-03-07T08:53:54.558Z,39.40
2023-03-07T08:54:54.527Z,38.40
2023-03-07T08:55:54.548Z,37.40
2023-03-07T08:56:54.507Z,41.30
2023-03-07T08:57:54.488Z,34.60
2023-03-07T08:58:54.476Z,32.40
2023-03-07T08:59:54.463Z,32.90
2023-03-07T09:00:54.450Z,32.90
2023-03-07T09:01:54.476Z,34.00
2023-03-07T09:02:54.426Z,35.40
2023-03-07T09:03:54.413Z,33.60
2023-03-07T09:04:54.441Z,34.80
2023-03-07T09:05:54.389Z,34.00
2023-03-07T09:06:54.379Z,36.60
2023-03-07T09:07:54.360Z,34.50
2023-03-07T09:08:54.348Z,35.10
2023-03-07T09:09:54.335Z,35.90
2023-03-07T09:10:54.325Z,34.90
2023-03-07T09:11:54.312Z,36.10
2023-03-07T09:12:54.299Z,32.30
2023-03-07T09:13:54.287Z,37.80
2023-03-07T09:14:54.274Z,33.70
2023-03-07T09:15:54.306Z,31.00
2023-03-07T09:16:54.250Z,32.10
2023-03-07T09:17:54.247Z,33.00
2023-03-07T09:18:54.235Z,35.10
2023-03-07T09:19:54.216Z,29.70
2023-03-07T09:20:54.202Z,30.20
2023-03-07T09:21:54.194Z,30.10
2023-03-07T09:22:54.185Z,28.10
2023-03-07T09:23:54.169Z,28.30
2023-03-07T09:24:54.159Z,28.40
2023-03-07T09:25:54.144Z,28.20
2023-03-07T09:26:54.129Z,26.70
2023-03-07T09:27:54.124Z,25.30
2023-03-07T09:28:54.104Z,26.20
2023-03-07T09:29:54.093Z,26.60
2023-03-07T09:30:54.085Z,23.80
2023-03-07T09:31:54.138Z,23.60
2023-03-07T09:32:54.059Z,24.10
2023-03-07T09:33:54.048Z,22.90
2023-03-07T09:34:54.035Z,23.80
2023-03-07T09:35:54.033Z,24.10
2023-03-07T09:36:54.013Z,22.10
2023-03-07T09:37:54.010Z,22.80
2023-03-07T09:38:54.347Z,21.30
2023-03-07T09:39:53.973Z,21.60
2023-03-07T09:40:53.964Z,19.00
2023-03-07T09:41:53.951Z,20.20
2023-03-07T09:42:53.939Z,18.20
2023-03-07T09:43:53.945Z,18.50
2023-03-07T09:44:53.917Z,16.50
2023-03-07T09:45:54.069Z,16.70
2023-03-07T09:46:53.913Z,17.90
2023-03-07T09:47:53.877Z,18.10
2023-03-07T09:48:53.870Z,18.00
2023-03-07T09:49:53.858Z,16.30
2023-03-07T09:50:53.844Z,17.20
2023-03-07T09:51:53.921Z,16.80
2023-03-07T09:52:53.824Z,16.10
2023-03-07T09:53:53.811Z,16.40
2023-03-07T09:54:53.805Z,16.60
2023-03-07T09:55:53.785Z,15.80
2023-03-07T09:56:53.776Z,15.30
2023-03-07T09:57:53.759Z,15.00
2023-03-07T09:58:53.756Z,13.10
2023-03-07T09:59:53.958Z,11.80
2023-03-07T10:00:53.728Z,13.60
2023-03-07T10:01:53.717Z,14.60
2023-03-07T10:02:53.720Z,11.60
2023-03-07T10:03:53.813Z,11.10
2023-03-07T10:04:53.687Z,10.80
2023-03-07T10:05:53.690Z,12.30
2023-03-07T10:06:53.690Z,10.40
2023-03-07T10:07:53.646Z,9.50
2023-03-07T10:08:53.640Z,10.60
2023-03-07T10:09:53.627Z,10.50
2023-03-07T10:10:53.617Z,10.50
2023-03-07T10:11:53.696Z,10.40
2023-03-07T10:12:53.592Z,9.30
2023-03-07T10:13:53.579Z,10.00
2023-03-07T10:14:53.569Z,10.80
2023-03-07T10:15:53.615Z,9.80
2023-03-07T10:16:53.587Z,10.50
2023-03-07T10:17:53.536Z,9.50
2023-03-07T10:18:53.525Z,10.30
2023-03-07T10:19:53.515Z,9.70
2023-03-07T10:20:53.500Z,8.50
2023-03-07T10:21:53.488Z,8.70
2023-03-07T10:22:53.491Z,9.10
2023-03-07T10:23:53.469Z,10.20
2023-03-07T10:24:53.454Z,9.30
2023-03-07T10:25:53.446Z,10.20
2023-03-07T10:26:53.433Z,8.40
2023-03-07T10:27:53.425Z,7.90
2023-03-07T10:28:53.411Z,9.30
2023-03-07T10:29:53.416Z,8.80
2023-03-07T10:30:53.425Z,8.30
2023-03-07T10:31:53.401Z,8.10
2023-03-07T10:32:53.362Z,9.00
2023-03-07T10:33:53.350Z,8.50
2023-03-07T10:34:53.340Z,8.80
2023-03-07T10:35:53.373Z,8.10
2023-03-07T10:37:06.574Z,8.10
2023-03-07T10:37:53.331Z,8.90
2023-03-07T10:38:53.294Z,7.80
2023-03-07T10:39:53.295Z,7.70
2023-03-07T10:40:53.288Z,7.40
2023-03-07T10:41:53.255Z,7.00
2023-03-07T10:42:53.256Z,7.80
2023-03-07T10:43:53.240Z,6.60
2023-03-07T10:44:53.224Z,6.90
2023-03-07T10:45:53.226Z,5.90
2023-03-07T10:46:56.136Z,6.10
2023-03-07T10:47:53.194Z,5.90
2023-03-07T10:48:53.181Z,6.20
2023-03-07T10:49:53.169Z,5.30
2023-03-07T10:50:53.160Z,5.60
2023-03-07T10:51:53.144Z,7.20
2023-03-07T10:52:53.133Z,5.40
2023-03-07T10:53:53.135Z,4.60
2023-03-07T10:54:53.112Z,5.20
2023-03-07T10:55:53.103Z,6.20
2023-03-07T10:56:53.094Z,5.10
2023-03-07T10:57:53.102Z,5.20
2023-03-07T10:58:53.075Z,5.50
2023-03-07T10:59:53.068Z,5.70
2023-03-07T11:00:53.051Z,3.90
2023-03-07T11:01:53.035Z,3.60
2023-03-07T11:02:53.038Z,4.80
2023-03-07T11:03:55.915Z,3.30
2023-03-07T11:04:53.026Z,4.30
2023-03-07T11:05:52.996Z,3.80
2023-03-07T11:06:52.990Z,3.40
2023-03-07T11:07:52.970Z,3.20
2023-03-07T11:08:52.956Z,4.00
2023-03-07T11:09:52.944Z,3.40
2023-03-07T11:10:52.937Z,2.70
2023-03-07T11:11:52.934Z,3.80
2023-03-07T11:12:52.913Z,3.50
2023-03-07T11:13:52.901Z,3.60
2023-03-07T11:14:52.939Z,4.20
2023-03-07T11:16:00.151Z,3.60
2023-03-07T11:16:52.872Z,3.70
2023-03-07T11:17:52.854Z,3.90
2023-03-07T11:18:52.860Z,2.90
2023-03-07T11:19:52.836Z,3.40
2023-03-07T11:20:52.827Z,2.60
2023-03-07T11:21:52.818Z,4.20
2023-03-07T11:22:52.806Z,4.10
2023-03-07T11:23:52.880Z,3.50
2023-03-07T11:24:52.788Z,2.80
2023-03-07T11:25:52.769Z,3.80
2023-03-07T11:26:52.758Z,3.20
2023-03-07T11:27:52.748Z,3.00
2023-03-07T11:28:52.750Z,4.20
2023-03-07T11:29:52.726Z,3.60
2023-03-07T11:30:52.727Z,3.30
2023-03-07T11:31:52.706Z,3.50
2023-03-07T11:32:52.701Z,4.70
2023-03-07T11:34:00.178Z,4.70
2023-03-07T11:34:52.670Z,3.70
2023-03-07T11:35:52.696Z,5.30
2023-03-07T11:36:52.651Z,3.60
2023-03-07T11:37:52.652Z,3.70
2023-03-07T11:38:52.625Z,3.40
2023-03-07T11:39:52.626Z,2.80
2023-03-07T11:40:52.609Z,4.20
2023-03-07T11:41:52.596Z,3.80
2023-03-07T11:42:52.588Z,4.00
2023-03-07T11:43:52.577Z,4.10
2023-03-07T11:44:52.567Z,3.80
2023-03-07T11:45:52.556Z,3.60
2023-03-07T11:46:52.556Z,4.00
2023-03-07T11:47:52.532Z,4.00
2023-03-07T11:48:52.522Z,5.50
2023-03-07T11:49:52.506Z,5.40
2023-03-07T11:50:52.499Z,4.90
2023-03-07T11:51:52.488Z,2.80
2023-03-07T11:52:52.479Z,4.80
2023-03-07T11:53:52.466Z,2.90
2023-03-07T11:54:52.459Z,3.80
2023-03-07T11:55:52.446Z,4.20
2023-03-07T11:56:52.436Z,3.50
2023-03-07T11:57:52.437Z,4.40
2023-03-07T11:58:52.413Z,3.30
2023-03-07T11:59:52.405Z,4.70
2023-03-07T12:00:52.397Z,3.20
2023-03-07T12:01:52.384Z,4.30
2023-03-07T12:02:52.395Z,4.20
2023-03-07T12:03:53.681Z,3.20
2023-03-07T12:04:52.348Z,4.30
2023-03-07T12:05:52.368Z,3.90
2023-03-07T12:06:52.328Z,3.80
2023-03-07T12:07:52.332Z,7.90
2023-03-07T12:08:52.309Z,2.10
2023-03-07T12:09:52.334Z,5.00
2023-03-07T12:10:52.282Z,2.80
2023-03-07T12:11:52.265Z,4.40
2023-03-07T12:12:52.269Z,3.10
2023-03-07T12:13:52.248Z,2.70
2023-03-07T12:14:52.243Z,3.40
2023-03-07T12:15:52.233Z,2.90
2023-03-07T12:16:52.220Z,3.30
2023-03-07T12:17:52.206Z,2.80
2023-03-07T12:18:52.193Z,3.10
2023-03-07T12:19:52.186Z,4.00
2023-03-07T12:20:52.170Z,2.80
2023-03-07T12:21:52.159Z,2.70
2023-03-07T12:22:52.145Z,2.10
2023-03-07T12:23:52.137Z,3.00
2023-03-07T12:24:52.123Z,4.00
2023-03-07T12:25:52.112Z,3.70
2023-03-07T12:26:52.099Z,3.70
2023-03-07T12:27:52.090Z,2.70
2023-03-07T12:28:52.100Z,3.10
2023-03-07T12:29:52.090Z,2.10
2023-03-07T12:30:52.054Z,2.40
2023-03-07T12:31:52.160Z,3.10
2023-03-07T12:32:52.169Z,2.30
2023-03-07T12:33:52.021Z,3.30
2023-03-07T12:34:52.013Z,2.80
2023-03-07T12:35:52.105Z,2.70
2023-03-07T12:36:51.985Z,4.20
2023-03-07T12:37:51.974Z,3.10
2023-03-07T12:38:51.964Z,2.90
2023-03-07T12:39:51.949Z,3.10
2023-03-07T12:40:51.952Z,3.20
2023-03-07T12:41:51.983Z,3.40
2023-03-07T12:42:51.916Z,2.80
2023-03-07T12:43:51.907Z,2.70
2023-03-07T12:44:51.894Z,2.80
2023-03-07T12:45:52.037Z,3.40
2023-03-07T12:46:51.865Z,3.20
2023-03-07T12:47:51.862Z,4.80
2023-03-07T12:48:51.844Z,3.10
2023-03-07T12:49:51.833Z,3.00
2023-03-07T12:50:51.820Z,3.90
2023-03-07T12:51:51.812Z,3.20
2023-03-07T12:52:51.809Z,3.60
2023-03-07T12:53:51.784Z,3.70
2023-03-07T12:54:51.778Z,3.80